createdAt,value
2018-05-17T00:02:03.897Z,11.60
2018-05-17T00:04:31.453Z,11.60
2018-05-17T00:06:59.038Z,11.60
2018-05-17T00:09:26.600Z,11.70
2018-05-17T00:11:54.165Z,11.70
2018-05-17T00:14:21.749Z,11.80
2018-05-17T00:16:50.078Z,11.80
2018-05-17T00:19:17.631Z,11.80
2018-05-17T00:21:45.222Z,11.90
2018-05-17T00:24:12.791Z,11.90
2018-05-17T00:26:40.349Z,11.90
2018-05-17T00:29:07.963Z,11.90
2018-05-17T00:31:35.555Z,12.00
2018-05-17T00:34:03.113Z,12.00
2018-05-17T00:36:30.706Z,12.00
2018-05-17T00:38:58.270Z,12.10
2018-05-17T00:41:26.615Z,12.10
2018-05-17T00:43:54.260Z,12.10
2018-05-17T00:46:21.791Z,12.20
2018-05-17T00:48:49.423Z,12.20
2018-05-17T00:51:17.016Z,12.20
2018-05-17T00:53:44.565Z,12.20
2018-05-17T00:56:12.153Z,12.20
2018-05-17T00:58:39.733Z,12.20
2018-05-17T01:01:07.288Z,12.20
2018-05-17T01:03:34.877Z,12.20
2018-05-17T01:06:03.188Z,12.20
2018-05-17T01:08:30.765Z,12.10
2018-05-17T01:10:58.313Z,12.10
2018-05-17T01:13:25.865Z,12.10
2018-05-17T01:15:53.470Z,12.10
2018-05-17T01:18:21.030Z,12.10
2018-05-17T01:20:48.583Z,12.10
2018-05-17T01:23:16.170Z,12.10
2018-05-17T01:25:44.498Z,12.10
2018-05-17T01:28:12.086Z,12.10
2018-05-17T01:30:39.660Z,12.10
2018-05-17T01:33:07.214Z,12.10
2018-05-17T01:35:34.859Z,12.20
2018-05-17T01:38:14.270Z,12.20
2018-05-17T01:40:41.864Z,12.20
2018-05-17T01:43:09.424Z,12.20
2018-05-17T01:45:36.972Z,12.20
2018-05-17T01:48:04.577Z,12.10
2018-05-17T01:50:32.901Z,12.10
2018-05-17T01:53:00.494Z,12.10
2018-05-17T01:55:28.048Z,12.10
2018-05-17T01:57:55.606Z,12.10
2018-05-17T02:00:23.194Z,12.20
2018-05-17T02:02:50.753Z,12.10
2018-05-17T02:05:19.080Z,12.10
2018-05-17T02:07:46.659Z,12.10
2018-05-17T02:10:14.227Z,12.10
2018-05-17T02:12:41.809Z,12.10
2018-05-17T02:15:09.369Z,12.10
2018-05-17T02:17:37.695Z,12.10
2018-05-17T02:20:05.305Z,12.10
2018-05-17T02:22:33.634Z,12.10
2018-05-17T02:25:01.194Z,12.10
2018-05-17T02:27:28.778Z,12.10
2018-05-17T02:29:56.342Z,12.10
2018-05-17T02:32:24.704Z,12.10
2018-05-17T02:34:52.270Z,12.10
2018-05-17T02:37:19.849Z,12.10
2018-05-17T02:39:48.187Z,12.10
2018-05-17T02:42:15.741Z,12.10
2018-05-17T02:44:43.302Z,12.10
2018-05-17T02:47:10.879Z,12.10
2018-05-17T02:49:38.451Z,12.10
2018-05-17T02:52:06.052Z,12.10
2018-05-17T02:54:33.597Z,12.10
2018-05-17T02:57:01.163Z,12.10
2018-05-17T02:59:28.751Z,12.10
2018-05-17T03:01:56.302Z,12.10
2018-05-17T03:04:23.872Z,12.10
2018-05-17T03:06:51.445Z,12.10
2018-05-17T03:09:18.990Z,12.10
2018-05-17T03:11:46.569Z,12.10
2018-05-17T03:14:14.130Z,12.10
2018-05-17T03:16:41.703Z,12.10
2018-05-17T03:19:09.272Z,12.20
2018-05-17T03:21:37.594Z,12.20
2018-05-17T03:24:05.155Z,12.10
2018-05-17T03:26:32.750Z,12.20
2018-05-17T03:29:00.311Z,12.20
2018-05-17T03:31:27.864Z,12.20
2018-05-17T03:33:55.463Z,12.20
2018-05-17T03:36:23.782Z,12.20
2018-05-17T03:38:51.333Z,12.10
2018-05-17T03:41:18.925Z,12.10
2018-05-17T03:43:46.481Z,12.10
2018-05-17T03:46:14.056Z,12.10
2018-05-17T03:48:42.398Z,12.10
2018-05-17T03:51:09.981Z,12.10
2018-05-17T03:53:37.561Z,12.10
2018-05-17T03:56:05.932Z,12.10
2018-05-17T03:58:34.267Z,12.10
2018-05-17T04:01:13.731Z,12.00
2018-05-17T04:03:53.033Z,12.10
2018-05-17T04:06:32.586Z,12.10
2018-05-17T04:09:00.141Z,12.10
2018-05-17T04:11:27.744Z,12.00
2018-05-17T04:13:55.401Z,12.00
2018-05-17T04:16:22.901Z,12.00
2018-05-17T04:18:50.467Z,12.00
2018-05-17T04:21:18.038Z,12.00
2018-05-17T04:23:45.608Z,12.00
2018-05-17T04:26:32.981Z,12.00
2018-05-17T04:29:01.337Z,12.00
2018-05-17T04:31:28.901Z,12.00
2018-05-17T04:33:57.235Z,12.00
2018-05-17T04:36:24.833Z,12.00
2018-05-17T04:38:52.384Z,12.00
2018-05-17T04:41:19.975Z,12.00
2018-05-17T04:43:48.310Z,12.00
2018-05-17T04:46:15.869Z,12.00
2018-05-17T04:48:45.027Z,12.00
2018-05-17T04:51:13.639Z,12.00
2018-05-17T04:53:42.021Z,12.00
2018-05-17T04:56:09.575Z,12.00
2018-05-17T04:58:37.158Z,12.00
2018-05-17T05:01:04.721Z,12.00
2018-05-17T05:03:32.303Z,12.00
2018-05-17T05:05:59.870Z,12.00
2018-05-17T05:08:28.217Z,12.10
2018-05-17T05:10:55.773Z,12.10
2018-05-17T05:13:23.359Z,12.10
2018-05-17T05:15:51.697Z,12.20
2018-05-17T05:18:19.417Z,12.10
2018-05-17T05:20:47.001Z,12.20
2018-05-17T05:23:14.594Z,12.20
2018-05-17T05:25:45.697Z,12.20
2018-05-17T05:28:13.269Z,12.20
2018-05-17T05:30:40.816Z,12.20
2018-05-17T05:33:08.401Z,12.20
2018-05-17T05:35:35.958Z,12.20
2018-05-17T05:38:03.525Z,12.20
2018-05-17T05:40:31.111Z,12.20
2018-05-17T05:42:59.435Z,12.30
2018-05-17T05:45:27.014Z,12.30
2018-05-17T05:47:54.575Z,12.30
2018-05-17T05:50:22.133Z,12.40
2018-05-17T05:52:49.710Z,12.50
2018-05-17T05:55:17.292Z,12.60
2018-05-17T05:57:45.652Z,12.60
2018-05-17T06:00:13.212Z,12.60
2018-05-17T06:02:40.790Z,12.70
2018-05-17T06:05:09.138Z,12.60
2018-05-17T06:07:36.691Z,12.60
2018-05-17T06:10:04.285Z,12.70
2018-05-17T06:12:32.623Z,12.60
2018-05-17T06:15:00.175Z,12.60
2018-05-17T06:17:27.845Z,12.70
2018-05-17T06:19:56.136Z,12.70
2018-05-17T06:22:23.732Z,12.60
2018-05-17T06:24:52.057Z,12.70
2018-05-17T06:27:19.623Z,12.70
2018-05-17T06:29:47.216Z,12.70
2018-05-17T06:32:15.560Z,12.50
2018-05-17T06:34:43.143Z,12.50
2018-05-17T06:37:10.696Z,12.50
2018-05-17T06:39:44.726Z,12.50
2018-05-17T06:42:13.185Z,12.50
2018-05-17T06:44:40.752Z,12.50
2018-05-17T06:47:08.334Z,12.50
2018-05-17T06:49:59.631Z,12.50
2018-05-17T06:52:27.211Z,12.50
2018-05-17T06:54:54.797Z,12.50
2018-05-17T06:57:22.395Z,12.50
2018-05-17T06:59:49.953Z,12.50
2018-05-17T07:02:17.518Z,12.50
2018-05-17T07:04:50.812Z,12.50
2018-05-17T07:07:18.375Z,12.40
2018-05-17T07:09:45.958Z,12.40
2018-05-17T07:12:13.516Z,12.40
2018-05-17T07:14:41.833Z,12.40
2018-05-17T07:17:09.425Z,12.40
2018-05-17T07:19:36.979Z,12.40
2018-05-17T07:22:04.579Z,12.40
2018-05-17T07:24:32.891Z,12.30
2018-05-17T07:27:00.444Z,12.30
2018-05-17T07:29:28.013Z,12.30
2018-05-17T07:31:55.558Z,12.20
2018-05-17T07:34:23.159Z,12.20
2018-05-17T07:36:50.719Z,12.20
2018-05-17T07:39:21.998Z,12.10
2018-05-17T07:41:49.551Z,12.10
2018-05-17T07:44:17.869Z,12.10
2018-05-17T07:46:45.483Z,12.10
2018-05-17T07:49:13.026Z,12.10
2018-05-17T07:51:40.613Z,12.00
2018-05-17T07:54:09.181Z,12.00
2018-05-17T07:56:37.513Z,12.00
2018-05-17T07:59:05.094Z,12.00
2018-05-17T08:01:32.643Z,12.00
2018-05-17T08:04:00.228Z,12.00
2018-05-17T08:06:27.788Z,11.90
2018-05-17T08:08:55.347Z,11.90
2018-05-17T08:11:22.933Z,11.90
2018-05-17T08:13:51.256Z,11.80
2018-05-17T08:16:18.841Z,11.80
2018-05-17T08:18:46.406Z,11.80
2018-05-17T08:21:13.992Z,11.90
2018-05-17T08:23:45.294Z,11.80
2018-05-17T08:26:12.869Z,11.80
2018-05-17T08:28:40.451Z,11.80
2018-05-17T08:31:08.774Z,11.90
2018-05-17T08:33:36.358Z,11.90
2018-05-17T08:36:03.982Z,11.90
2018-05-17T08:38:31.537Z,11.90
2018-05-17T08:40:59.114Z,12.00
2018-05-17T08:43:26.669Z,12.20
2018-05-17T08:45:54.257Z,12.40
2018-05-17T08:48:21.823Z,12.30
2018-05-17T08:50:49.382Z,12.20
2018-05-17T08:53:16.957Z,12.30
2018-05-17T08:55:45.287Z,12.40
2018-05-17T08:58:12.861Z,12.40
2018-05-17T09:00:41.758Z,12.40
2018-05-17T09:03:09.314Z,12.40
2018-05-17T09:05:36.903Z,12.20
2018-05-17T09:08:05.230Z,12.20
2018-05-17T09:10:32.817Z,12.10
2018-05-17T09:13:00.367Z,12.30
2018-05-17T09:15:27.969Z,12.30
2018-05-17T09:17:56.297Z,12.30
2018-05-17T09:20:23.873Z,12.20
2018-05-17T09:22:51.462Z,12.20
2018-05-17T09:25:19.776Z,12.20
2018-05-17T09:27:47.346Z,12.10
2018-05-17T09:30:14.886Z,12.20
2018-05-17T09:32:42.441Z,12.30
2018-05-17T09:35:10.015Z,12.20
2018-05-17T09:37:37.574Z,12.20
2018-05-17T09:40:05.156Z,12.30
2018-05-17T09:42:32.724Z,12.30
2018-05-17T09:45:00.291Z,12.40
2018-05-17T09:47:27.882Z,12.50
2018-05-17T09:49:55.432Z,12.40
2018-05-17T09:52:23.796Z,12.50
2018-05-17T09:54:52.137Z,12.70
2018-05-17T09:57:19.710Z,12.70
2018-05-17T09:59:47.281Z,12.80
2018-05-17T10:02:14.851Z,13.00
2018-05-17T10:04:42.435Z,12.90
2018-05-17T10:07:16.355Z,12.80
2018-05-17T10:09:43.933Z,12.80
2018-05-17T10:12:11.490Z,12.90
2018-05-17T10:14:39.147Z,12.80
2018-05-17T10:17:07.801Z,12.70
2018-05-17T10:19:36.120Z,12.60
2018-05-17T10:22:03.717Z,12.60
2018-05-17T10:24:31.278Z,12.70
2018-05-17T10:26:58.838Z,12.90
2018-05-17T10:29:26.438Z,13.10
2018-05-17T10:31:54.007Z,13.20
2018-05-17T10:34:21.591Z,13.40
2018-05-17T10:36:49.144Z,13.60
2018-05-17T10:39:16.690Z,14.00
2018-05-17T10:41:44.262Z,13.90
2018-05-17T10:44:11.813Z,14.10
2018-05-17T10:46:39.413Z,14.10
2018-05-17T10:49:06.978Z,14.20
2018-05-17T10:51:35.310Z,13.90
2018-05-17T10:54:02.896Z,13.90
2018-05-17T10:56:30.459Z,13.70
2018-05-17T10:58:58.062Z,13.70
2018-05-17T11:01:25.623Z,13.50
2018-05-17T11:03:53.209Z,13.40
2018-05-17T11:06:20.807Z,13.50
2018-05-17T11:09:01.424Z,13.60
2018-05-17T11:11:29.012Z,13.50
2018-05-17T11:13:56.573Z,13.50
2018-05-17T11:16:24.220Z,13.60
2018-05-17T11:18:51.831Z,13.50
2018-05-17T11:21:23.654Z,13.50
2018-05-17T11:23:51.249Z,13.50
2018-05-17T11:26:19.596Z,13.20
2018-05-17T11:28:47.197Z,13.20
2018-05-17T11:31:15.542Z,13.20
2018-05-17T11:33:43.100Z,13.20
2018-05-17T11:36:13.878Z,13.30
2018-05-17T11:38:41.455Z,13.40
2018-05-17T11:41:09.019Z,13.40
2018-05-17T11:43:36.626Z,13.30
2018-05-17T11:46:04.194Z,13.30
2018-05-17T11:48:33.505Z,13.50
2018-05-17T11:51:01.830Z,13.50
2018-05-17T11:53:29.389Z,13.50
2018-05-17T11:55:56.956Z,13.60
2018-05-17T11:58:24.532Z,13.70
2018-05-17T12:00:52.119Z,13.80
2018-05-17T12:03:19.715Z,13.90
2018-05-17T12:05:47.296Z,13.90
2018-05-17T12:08:14.870Z,13.90
2018-05-17T12:10:42.477Z,13.80
2018-05-17T12:13:10.111Z,14.00
2018-05-17T12:15:39.000Z,14.20
2018-05-17T12:18:07.341Z,14.30
2018-05-17T12:23:28.277Z,14.30
2018-05-17T12:25:55.866Z,14.20
2018-05-17T12:28:24.188Z,14.30
2018-05-17T12:31:04.676Z,14.30
2018-05-17T12:33:32.307Z,14.50
2018-05-17T12:35:59.885Z,14.70
2018-05-17T12:38:27.442Z,15.10
2018-05-17T12:40:55.769Z,15.10
2018-05-17T12:43:24.107Z,15.10
2018-05-17T12:45:51.656Z,15.10
2018-05-17T12:48:19.227Z,14.90
2018-05-17T12:50:46.814Z,14.80
2018-05-17T12:53:14.352Z,14.80
2018-05-17T12:55:41.932Z,15.00
2018-05-17T12:58:11.123Z,14.90
2018-05-17T13:00:38.726Z,14.90
2018-05-17T13:03:06.361Z,14.90
2018-05-17T13:05:34.672Z,15.00
2018-05-17T13:08:02.282Z,15.00
2018-05-17T13:10:30.626Z,14.70
2018-05-17T13:12:58.239Z,14.70
2018-05-17T13:15:26.602Z,14.90
2018-05-17T13:17:55.457Z,15.10
2018-05-17T13:23:16.073Z,15.40
2018-05-17T13:25:43.664Z,15.60
2018-05-17T13:28:11.217Z,15.40
2018-05-17T13:30:38.778Z,15.70
2018-05-17T13:33:06.357Z,15.90
2018-05-17T13:35:33.992Z,15.70
2018-05-17T13:38:01.589Z,15.90
2018-05-17T13:40:29.159Z,15.80
2018-05-17T13:42:56.727Z,15.90
2018-05-17T13:45:24.297Z,16.30
2018-05-17T13:47:52.226Z,16.60
2018-05-17T13:50:19.750Z,17.00
2018-05-17T13:52:47.338Z,17.00
2018-05-17T13:55:15.672Z,16.60
2018-05-17T13:57:50.175Z,16.50
2018-05-17T14:00:17.773Z,16.40
2018-05-17T14:02:45.370Z,16.20
2018-05-17T14:05:12.933Z,16.40
2018-05-17T14:07:40.496Z,16.40
2018-05-17T14:10:08.079Z,16.40
2018-05-17T14:12:35.637Z,16.20
2018-05-17T14:15:03.220Z,15.90
2018-05-17T14:17:30.805Z,15.70
2018-05-17T14:19:58.371Z,15.70
2018-05-17T14:22:26.719Z,15.70
2018-05-17T14:24:54.282Z,15.70
2018-05-17T14:27:21.876Z,15.60
2018-05-17T14:29:50.215Z,15.60
2018-05-17T14:32:17.789Z,15.50
2018-05-17T14:34:45.371Z,15.90
2018-05-17T14:37:13.705Z,15.80
2018-05-17T14:39:41.303Z,15.80
2018-05-17T14:42:09.625Z,15.90
2018-05-17T14:44:37.287Z,15.90
2018-05-17T14:47:04.862Z,15.90
2018-05-17T14:49:32.421Z,16.10
2018-05-17T14:51:59.989Z,16.00
2018-05-17T14:54:29.174Z,16.10
2018-05-17T14:56:56.759Z,16.10
2018-05-17T14:59:24.324Z,16.20
2018-05-17T15:01:58.535Z,16.20
2018-05-17T15:04:26.097Z,16.20
2018-05-17T15:06:53.667Z,16.00
2018-05-17T15:09:22.015Z,16.20
2018-05-17T15:11:49.826Z,16.20
2018-05-17T15:14:18.161Z,16.80
2018-05-17T15:16:45.707Z,16.80
2018-05-17T15:19:13.307Z,16.90
2018-05-17T15:21:40.877Z,17.30
2018-05-17T15:24:09.202Z,16.90
2018-05-17T15:26:36.793Z,16.90
2018-05-17T15:29:05.233Z,16.70
2018-05-17T15:31:32.785Z,16.50
2018-05-17T15:34:00.464Z,16.50
2018-05-17T15:36:27.952Z,16.30
2018-05-17T15:38:56.485Z,16.20
2018-05-17T15:41:24.052Z,16.30
2018-05-17T15:43:51.938Z,16.20
2018-05-17T15:46:19.522Z,16.20
2018-05-17T15:48:47.068Z,16.40
2018-05-17T15:51:14.669Z,16.40
2018-05-17T15:53:42.987Z,15.90
2018-05-17T15:56:10.552Z,15.90
2018-05-17T15:58:38.117Z,15.80
2018-05-17T16:01:06.494Z,15.70
2018-05-17T16:03:34.064Z,15.70
2018-05-17T16:06:01.625Z,15.70
2018-05-17T16:08:29.228Z,15.80
2018-05-17T16:10:57.548Z,16.00
2018-05-17T16:13:25.113Z,16.00
2018-05-17T16:15:52.693Z,16.10
2018-05-17T16:18:20.298Z,16.10
2018-05-17T16:20:47.864Z,16.10
2018-05-17T16:23:15.445Z,16.00
2018-05-17T16:25:43.013Z,15.80
2018-05-17T16:28:10.592Z,15.70
2018-05-17T16:30:38.149Z,15.70
2018-05-17T16:33:05.704Z,15.50
2018-05-17T16:35:33.293Z,15.60
2018-05-17T16:38:00.846Z,15.70
2018-05-17T16:40:29.217Z,15.90
2018-05-17T16:42:57.547Z,16.10
2018-05-17T16:45:25.103Z,16.10
2018-05-17T16:47:52.680Z,16.30
2018-05-17T16:50:20.226Z,16.50
2018-05-17T16:52:47.830Z,16.80
2018-05-17T16:55:16.154Z,16.80
2018-05-17T16:57:43.715Z,16.80
2018-05-17T17:00:11.321Z,16.80
2018-05-17T17:02:38.877Z,16.80
2018-05-17T17:05:06.550Z,16.70
2018-05-17T17:07:34.807Z,16.30
2018-05-17T17:10:02.378Z,16.20
2018-05-17T17:12:29.941Z,16.20
2018-05-17T17:14:58.309Z,15.90
2018-05-17T17:17:25.858Z,15.90
2018-05-17T17:19:53.418Z,15.60
2018-05-17T17:22:20.984Z,15.40
2018-05-17T17:24:48.546Z,15.30
2018-05-17T17:27:16.130Z,15.10
2018-05-17T17:29:44.465Z,14.90
2018-05-17T17:32:12.038Z,14.90
2018-05-17T17:34:39.636Z,14.80
2018-05-17T17:37:07.190Z,14.80
2018-05-17T17:39:35.557Z,14.70
2018-05-17T17:42:03.877Z,14.70
2018-05-17T17:44:31.438Z,14.70
2018-05-17T17:46:59.017Z,14.70
2018-05-17T17:49:26.591Z,14.60
2018-05-17T17:51:54.177Z,14.60
2018-05-17T17:54:22.502Z,14.60
2018-05-17T17:56:50.057Z,14.50
2018-05-17T17:59:17.643Z,14.60
2018-05-17T18:01:45.194Z,14.50
2018-05-17T18:04:12.773Z,14.50
2018-05-17T18:06:40.331Z,14.50
2018-05-17T18:09:07.899Z,14.50
2018-05-17T18:11:35.473Z,14.40
2018-05-17T18:14:03.797Z,14.40
2018-05-17T18:16:31.408Z,14.40
2018-05-17T18:18:58.986Z,14.30
2018-05-17T18:21:33.209Z,14.30
2018-05-17T18:24:00.822Z,14.30
2018-05-17T18:26:35.606Z,14.30
2018-05-17T18:29:03.165Z,14.20
2018-05-17T18:31:30.737Z,14.10
2018-05-17T18:33:58.401Z,14.10
2018-05-17T18:36:25.893Z,14.10
2018-05-17T18:38:54.269Z,14.00
2018-05-17T18:41:21.837Z,14.00
2018-05-17T18:43:50.267Z,13.90
2018-05-17T18:46:25.692Z,13.80
2018-05-17T18:48:53.328Z,13.80
2018-05-17T18:51:20.884Z,13.80
2018-05-17T18:53:49.211Z,13.70
2018-05-17T18:56:16.767Z,13.70
2018-05-17T19:01:38.221Z,13.50
2018-05-17T19:04:05.830Z,13.50
2018-05-17T19:06:34.339Z,13.40
2018-05-17T19:09:03.854Z,13.40
2018-05-17T19:11:31.431Z,13.40
2018-05-17T19:13:58.988Z,13.30
2018-05-17T19:16:26.594Z,13.20
2018-05-17T19:18:54.145Z,13.10
2018-05-17T19:21:22.471Z,13.00
2018-05-17T19:23:50.049Z,13.00
2018-05-17T19:26:20.860Z,13.00
2018-05-17T19:28:48.490Z,12.90
2018-05-17T19:31:17.838Z,12.80
2018-05-17T19:33:45.414Z,12.80
2018-05-17T19:36:13.005Z,12.70
2018-05-17T19:38:41.376Z,12.50
2018-05-17T19:41:08.994Z,12.40
2018-05-17T19:43:36.557Z,12.30
2018-05-17T19:46:04.104Z,12.30
2018-05-17T19:48:31.691Z,12.20
2018-05-17T19:50:59.253Z,12.10
2018-05-17T19:53:26.850Z,12.10
2018-05-17T19:55:55.177Z,12.10
2018-05-17T19:58:22.737Z,12.10
2018-05-17T20:00:53.090Z,12.10
2018-05-17T20:03:20.737Z,12.00
2018-05-17T20:05:48.336Z,12.00
2018-05-17T20:08:16.132Z,12.00
2018-05-17T20:10:44.632Z,12.00
2018-05-17T20:13:13.008Z,12.00
2018-05-17T20:15:40.800Z,11.90
2018-05-17T20:18:08.554Z,11.90
2018-05-17T20:20:36.950Z,11.90
2018-05-17T20:23:04.605Z,11.90
2018-05-17T20:25:32.159Z,11.90
2018-05-17T20:27:59.747Z,11.80
2018-05-17T20:30:27.331Z,11.70
2018-05-17T20:32:54.878Z,11.70
2018-05-17T20:35:22.461Z,11.60
2018-05-17T20:37:53.718Z,11.60
2018-05-17T20:40:21.310Z,11.60
2018-05-17T20:42:49.687Z,11.40
2018-05-17T20:45:18.013Z,11.40
2018-05-17T20:47:45.600Z,11.40
2018-05-17T20:50:13.153Z,11.40
2018-05-17T20:52:40.701Z,11.30
2018-05-17T20:55:08.363Z,11.30
2018-05-17T20:57:35.869Z,11.20
2018-05-17T21:00:03.461Z,11.20
2018-05-17T21:02:31.033Z,11.20
2018-05-17T21:04:58.606Z,11.10
2018-05-17T21:07:26.185Z,11.10
2018-05-17T21:09:53.726Z,11.10
2018-05-17T21:12:21.316Z,11.10
2018-05-17T21:14:48.871Z,11.00
2018-05-17T21:17:16.628Z,11.00
2018-05-17T21:19:45.052Z,11.00
2018-05-17T21:22:12.909Z,11.00
2018-05-17T21:24:41.134Z,10.90
2018-05-17T21:27:08.877Z,10.90
2018-05-17T21:29:36.457Z,10.90
2018-05-17T21:32:04.057Z,10.80
2018-05-17T21:34:32.369Z,10.80
2018-05-17T21:36:59.960Z,10.80
2018-05-17T21:39:27.579Z,10.80
2018-05-17T21:42:02.012Z,10.70
2018-05-17T21:44:29.574Z,10.70
2018-05-17T21:46:57.168Z,10.80
2018-05-17T21:49:25.509Z,10.70
2018-05-17T21:51:53.064Z,10.70
2018-05-17T21:54:20.660Z,10.70
2018-05-17T21:56:48.222Z,10.70
2018-05-17T21:59:15.777Z,10.70
2018-05-17T22:01:43.359Z,10.80
2018-05-17T22:04:10.925Z,10.80
2018-05-17T22:06:38.530Z,10.80
2018-05-17T22:09:06.106Z,10.80
2018-05-17T22:11:33.674Z,10.80
2018-05-17T22:14:01.254Z,10.80
2018-05-17T22:16:28.806Z,10.70
2018-05-17T22:18:56.399Z,10.70
2018-05-17T22:21:24.709Z,10.70
2018-05-17T22:23:52.285Z,10.70
2018-05-17T22:26:19.871Z,10.70
2018-05-17T22:28:47.426Z,10.70
2018-05-17T22:31:15.014Z,10.70
2018-05-17T22:33:42.638Z,10.60
2018-05-17T22:36:12.291Z,10.60
2018-05-17T22:38:39.949Z,10.60
2018-05-17T22:41:07.513Z,10.60
2018-05-17T22:43:35.072Z,10.60
2018-05-17T22:46:02.641Z,10.60
2018-05-17T22:48:30.198Z,10.60
2018-05-17T22:50:57.750Z,10.60
2018-05-17T22:53:25.333Z,10.60
2018-05-17T22:55:52.890Z,10.60
2018-05-17T22:58:31.431Z,10.60
2018-05-17T23:01:02.070Z,10.50
2018-05-17T23:03:29.666Z,10.50
2018-05-17T23:05:57.233Z,10.40
2018-05-17T23:08:24.789Z,10.40
2018-05-17T23:10:53.130Z,10.30
2018-05-17T23:13:20.697Z,10.30
2018-05-17T23:15:48.283Z,10.30
2018-05-17T23:18:16.608Z,10.20
2018-05-17T23:20:44.190Z,10.10
2018-05-17T23:23:11.899Z,10.10
2018-05-17T23:25:39.457Z,10.10
2018-05-17T23:28:07.038Z,10.00
2018-05-17T23:30:34.586Z,9.90
2018-05-17T23:33:02.145Z,9.80
2018-05-17T23:35:29.730Z,9.80
2018-05-17T23:37:57.278Z,9.80
2018-05-17T23:40:36.706Z,9.80
2018-05-17T23:43:04.256Z,9.80
2018-05-17T23:45:31.830Z,9.70
2018-05-17T23:47:59.379Z,9.70
2018-05-17T23:50:26.989Z,9.70
2018-05-17T23:52:54.553Z,9.60
2018-05-17T23:55:22.109Z,9.60
2018-05-17T23:57:49.702Z,9.60
